Corwen, United Kingdom
Current Conditions -  °F | °C
As of 8:20 PM on Monday 24 Nov 2014 (Local Time) from EGNR Reporting Station
Few Clouds Few Clouds  
Wind Chill: 32°   Ceiling: Unl
Heat Index: 37°   Visibility: 6mi
Dew Point: 36°   Wind: 7mph
Humidity: 93%   Direction: 160°SSE
Pressure: 30.33"   Gusts: NA
Location:  52.98°N, 3.37°W
Report Text: EGNR 242020Z 16006KT 9999 FEW030 03/02 Q1027
Loading
Personal Weather Stations






























Interactive Weather Map New forecast layout! Learn more

10-Day Weather Forecast

Advertisements
Track Severe Weather on mobile